Boothbay Harbor, ME

1:49 PM EDT on October 25, 2014 (GMT -0400)
Brown's Wharf Atlantic Ave | Change Station
CLOSE
Current Station
Personal Weather Station
Location: Boothbay Harbor, ME
Elevation: 10 ft
Nearby Weather Stations

Elev 10 ft 43.84 °N, 69.63 °W | Updated 1 minute ago

Clear
Clear
58.8 °F
Feels Like 58.8 °F
N
4.0
Wind Variable Wind from SSE

Today
High -- | Low -- °F
--% Chance of Precip.
Yesterday
High -- | Low -- °F
Precip. -- in
7:05 AM 5:38 PM
Waxing Crescent, 4% visible
Pressure 29.62 in
Visibility 10.0 miles
Clouds Clear
Dew Point 47 °F
Humidity 64%
Rainfall 0.00 in
Snow Depth Not available.
UV 4 out of 12
Pollen .40 out of 12
Air Quality Not available.
Flu Activity Sporadic
METAR KIWI 251653Z AUTO 28005KT 10SM CLR 16/04 A2962 RMK AO2 SLP030 T01610039

More Conditions Fewer Conditions

Pressure 29.62 in
Visibility 10.0 miles
Clouds Clear
Dew Point 47 °F
Humidity 64%
Rainfall 0.00 in
Snow Depth Not available.
UV 4 out of 12
Pollen .40 out of 12
Air Quality Not available.
Flu Activity Sporadic
METAR KIWI 251653Z AUTO 28005KT 10SM CLR 16/04 A2962 RMK AO2 SLP030 T01610039

More Conditions Fewer Conditions

10-Day Weather Forecast

Almanac

Astronomy

Oct. 25, 2014 Rise Set
Actual Time 7:05 AM EDT 5:38 PM EDT
Civil Twilight 6:35 AM EDT 6:08 PM EDT
Nautical Twilight 6:02 AM EDT 6:42 PM EDT
Astronomical Twilight 5:28 AM EDT 7:15 PM EDT
Moon 8:43 AM EDT 6:56 PM EDT
Length of Visible Light 11h 32m
Length of Day
10h 33m
Tomorrow will be 2m 48s shorter.
Waxing Crescent, 4% of the Moon is Illuminated
Today
Waxing Crescent
Oct 30
First Quarter
Nov 6
Full
Nov 14
Last Quarter
Nov 22
New

Today's Extremes

State Highs State Lows

Community

WunderPhotos

Upload Photos

1,764,919 photos uploaded!

Nearby

Air Quality

  Air Quality AQ Index Pollutant
Saturday Good
OZONE
Saturday Good
PM2.5
Sunday Good
OZONE
Sunday Good
PM2.5
Monday Good
OZONE
Monday Good
PM2.5
Tuesday Good
OZONE
Tuesday Good
PM2.5

Snow Depth

Station Depth Elevation
No new snow has been reported.

Earthquake Activity

City Distance Mag. Time & Date
No recent earthquake activity has been reported nearby.
Minimum magnitude displayed is 2.5.

Coastal Water Temperatures

Place Temperature
Portland, ME 54.0 °F
Wells, ME 51.1 °F

Nearby Weather Stations